Time;durP1;ratioP1;P1;durP2;ratioP2;P2;SDS_P1;SDS_P2;PMS_P1;PMS_P2;Temp;Humidity;BMP_temperature;BMP_pressure;BME280_temperature;BME280_humidity;BME280_pressure;Samples;Min_cycle;Max_cycle;Signal;HPM_P1;HPM_P2
2022/11/27 00:01:14;;;;;;;99.68;8.38;;;;;;;-2.25;100.00;94993.94;4982986;28;20500;-69
2022/11/27 00:03:42;;;;;;;42.30;7.70;;;;;;;-2.24;100.00;94995.50;4981762;28;20434;-67
2022/11/27 00:06:14;;;;;;;29.67;7.25;;;;;;;-2.12;100.00;94999.53;4977492;28;20455;-67
2022/11/27 00:08:42;;;;;;;65.65;8.10;;;;;;;-2.05;100.00;94992.63;4970505;28;20054;-66
2022/11/27 00:11:12;;;;;;;45.03;8.27;;;;;;;-2.07;100.00;94986.75;4971236;28;20550;-67
2022/11/27 00:13:39;;;;;;;37.88;7.53;;;;;;;-1.97;100.00;94988.38;4987694;28;20042;-66
2022/11/27 00:16:06;;;;;;;62.17;7.38;;;;;;;-2.02;100.00;94986.59;4985841;28;20047;-67
2022/11/27 00:18:34;;;;;;;48.55;8.13;;;;;;;-2.15;100.00;94984.81;4970525;28;20046;-67
2022/11/27 00:21:06;;;;;;;60.80;7.57;;;;;;;-2.04;100.00;94980.75;4971105;28;20050;-68
2022/11/27 00:23:34;;;;;;;47.83;8.18;;;;;;;-2.04;100.00;94971.88;4970593;28;20073;-67
2022/11/27 00:26:02;;;;;;;52.30;7.70;;;;;;;-2.19;100.00;94969.59;4983234;28;20080;-67
2022/11/27 00:28:29;;;;;;;45.03;10.23;;;;;;;-2.06;100.00;94971.41;4974702;28;20051;-67
2022/11/27 00:31:03;;;;;;;75.30;10.10;;;;;;;-1.99;100.00;94968.25;4989484;28;20087;-67
2022/11/27 00:33:30;;;;;;;70.20;8.98;;;;;;;-2.10;100.00;94956.97;4974496;28;20047;-67
2022/11/27 00:36:05;;;;;;;73.20;7.82;;;;;;;-2.13;100.00;94958.41;4969987;28;20840;-69
2022/11/27 00:38:32;;;;;;;88.20;8.07;;;;;;;-2.06;100.00;94952.56;4985356;28;20050;-65
2022/11/27 00:41:06;;;;;;;34.73;6.97;;;;;;;-2.02;100.00;94940.88;4971346;28;20039;-67
2022/11/27 00:43:34;;;;;;;38.78;7.78;;;;;;;-2.14;100.00;94931.81;4970598;28;20051;-67
2022/11/27 00:46:10;;;;;;;80.50;8.55;;;;;;;-2.22;100.00;94934.13;4971115;28;20042;-67
2022/11/27 00:48:37;;;;;;;77.00;7.13;;;;;;;-2.29;100.00;94933.81;4970293;28;20460;-71
2022/11/27 00:51:06;;;;;;;82.97;7.53;;;;;;;-2.42;100.00;94927.41;4970778;28;20043;-66
2022/11/27 00:53:33;;;;;;;139.93;9.93;;;;;;;-2.59;100.00;94924.63;4969620;28;20108;-67
2022/11/27 00:56:00;;;;;;;46.55;7.63;;;;;;;-2.58;100.00;94923.50;4981080;28;20104;-66
2022/11/27 00:58:29;;;;;;;66.55;8.38;;;;;;;-2.44;100.00;94923.44;4977057;28;20053;-67
2022/11/27 01:00:59;;;;;;;140.10;8.52;;;;;;;-2.49;100.00;94918.22;4989099;28;20418;-67
2022/11/27 01:03:27;;;;;;;36.17;7.28;;;;;;;-2.52;100.00;94921.50;4972888;28;20034;-67
2022/11/27 01:05:54;;;;;;;64.82;7.22;;;;;;;-2.47;100.00;94916.78;4990429;28;20069;-67
2022/11/27 01:08:22;;;;;;;44.92;7.80;;;;;;;-2.53;100.00;94909.97;4974620;28;20053;-68
2022/11/27 01:10:57;;;;;;;49.67;6.40;;;;;;;-2.57;100.00;94916.25;4972498;28;20056;-68
2022/11/27 01:13:29;;;;;;;108.95;7.85;;;;;;;-2.75;100.00;94902.72;4998172;28;20070;-68
2022/11/27 01:16:01;;;;;;;105.75;7.35;;;;;;;-2.68;100.00;94907.66;4981840;28;20053;-67
2022/11/27 01:18:28;;;;;;;103.65;7.15;;;;;;;-2.62;100.00;94903.72;4974240;28;20484;-67
2022/11/27 01:20:55;;;;;;;62.42;10.27;;;;;;;-2.61;100.00;94899.97;4973812;28;20065;-67
2022/11/27 01:23:22;;;;;;;45.63;7.25;;;;;;;-2.66;100.00;94895.47;4974522;28;20113;-67
2022/11/27 01:25:49;;;;;;;66.80;6.97;;;;;;;-2.73;100.00;94892.44;4983883;28;20748;-67
2022/11/27 01:28:16;;;;;;;154.63;8.82;;;;;;;-2.85;100.00;94890.31;4979633;28;20383;-67
2022/11/27 01:30:42;;;;;;;82.38;7.50;;;;;;;-2.77;100.00;94890.69;4989523;28;20708;-68
2022/11/27 01:33:10;;;;;;;159.98;10.85;;;;;;;-2.82;100.00;94886.22;4974187;28;20042;-69
2022/11/27 01:35:36;;;;;;;132.18;9.15;;;;;;;-2.79;100.00;94879.47;4973670;28;20049;-67
2022/11/27 01:38:03;;;;;;;47.85;7.45;;;;;;;-2.66;100.00;94884.72;4974077;28;20062;-67
2022/11/27 01:40:30;;;;;;;48.40;7.57;;;;;;;-2.51;100.00;94880.09;4974039;28;20072;-68
2022/11/27 01:42:56;;;;;;;48.67;6.22;;;;;;;-2.74;100.00;94882.78;4980918;28;20889;-67
2022/11/27 01:45:23;;;;;;;77.55;7.68;;;;;;;-2.94;100.00;94878.72;4974145;28;20043;-67
2022/11/27 01:47:53;;;;;;;85.28;7.50;;;;;;;-3.05;100.00;94880.09;4973120;28;20042;-66
2022/11/27 01:50:32;;;;;;;107.88;7.32;;;;;;;-3.02;100.00;94868.72;4957077;28;20096;-66
2022/11/27 01:53:06;;;;;;;58.33;7.25;;;;;;;-2.98;100.00;94869.69;4988589;28;20822;-66
2022/11/27 01:55:43;;;;;;;86.43;7.65;;;;;;;-2.95;100.00;94871.00;4979570;28;20092;-64
2022/11/27 01:58:13;;;;;;;79.90;6.90;;;;;;;-2.90;100.00;94866.25;4980086;28;20038;-66
2022/11/27 02:00:40;;;;;;;194.23;10.15;;;;;;;-3.07;100.00;94864.28;4978130;28;20046;-67
2022/11/27 02:03:08;;;;;;;65.63;6.68;;;;;;;-2.93;100.00;94860.72;4993041;28;20046;-66
2022/11/27 02:05:35;;;;;;;151.52;8.35;;;;;;;-2.97;100.00;94860.53;4992158;28;20474;-66
2022/11/27 02:08:07;;;;;;;92.63;6.78;;;;;;;-2.95;100.00;94854.88;4973281;28;20463;-66
2022/11/27 02:10:50;;;;;;;41.45;6.95;;;;;;;-2.93;100.00;94847.31;4973428;28;20042;-64
2022/11/27 02:13:29;;;;;;;78.03;7.13;;;;;;;-2.89;100.00;94849.06;4992634;28;20685;-66
2022/11/27 02:16:19;;;;;;;60.42;6.30;;;;;;;-2.96;100.00;94846.00;4988522;28;20115;-67
2022/11/27 02:19:14;;;;;;;31.98;6.15;;;;;;;-2.97;100.00;94841.75;4972257;28;20055;-66
2022/11/27 02:22:06;;;;;;;77.03;6.75;;;;;;;-2.95;100.00;94839.53;4981986;28;20042;-66
2022/11/27 02:25:01;;;;;;;63.85;6.68;;;;;;;-2.99;100.00;94840.47;4992272;28;20046;-67
2022/11/27 02:28:03;;;;;;;78.72;6.70;;;;;;;-3.04;100.00;94841.38;4992762;28;20050;-67
2022/11/27 02:30:35;;;;;;;56.40;6.53;;;;;;;-2.97;100.00;94841.75;4925036;28;20167;-66
2022/11/27 02:33:07;;;;;;;131.82;8.60;;;;;;;-2.99;100.00;94838.56;4991474;28;20610;-67
2022/11/27 02:36:03;;;;;;;41.30;5.95;;;;;;;-3.01;100.00;94841.56;4992030;28;20062;-67
2022/11/27 02:38:37;;;;;;;46.50;7.03;;;;;;;-2.96;100.00;94835.25;4990457;28;20038;-67
2022/11/27 02:41:15;;;;;;;82.22;7.57;;;;;;;-2.87;100.00;94836.13;4991206;28;20416;-67
2022/11/27 02:43:48;;;;;;;35.67;5.90;;;;;;;-2.89;100.00;94835.63;4992040;28;20055;-67
2022/11/27 02:46:16;;;;;;;37.30;6.47;;;;;;;-2.86;100.00;94837.72;4986536;28;20561;-67
2022/11/27 02:48:56;;;;;;;35.70;6.55;;;;;;;-2.85;100.00;94836.59;4972229;28;20415;-67
2022/11/27 02:51:46;;;;;;;95.88;7.03;;;;;;;-2.86;100.00;94839.59;4972775;28;20045;-66
2022/11/27 02:54:20;;;;;;;48.22;6.60;;;;;;;-2.91;100.00;94837.84;4977778;28;20657;-67
2022/11/27 02:56:49;;;;;;;58.00;6.13;;;;;;;-3.04;100.00;94833.31;4982119;28;20053;-67
2022/11/27 02:59:19;;;;;;;113.43;7.90;;;;;;;-2.98;100.00;94829.41;4986270;28;20053;-67
2022/11/27 03:01:54;;;;;;;67.85;5.60;;;;;;;-3.05;100.00;94835.22;4971707;28;20053;-68
2022/11/27 03:04:28;;;;;;;34.97;5.90;;;;;;;-3.16;100.00;94828.50;4979146;28;20043;-67
2022/11/27 03:07:00;;;;;;;80.00;7.45;;;;;;;-3.26;100.00;94832.25;4980220;28;20061;-68
2022/11/27 03:09:34;;;;;;;39.72;5.93;;;;;;;-3.19;100.00;94828.34;4972402;28;20086;-67
2022/11/27 03:12:04;;;;;;;48.20;6.32;;;;;;;-3.25;100.00;94824.97;4971430;28;20154;-67
2022/11/27 03:14:32;;;;;;;75.90;7.10;;;;;;;-3.33;100.00;94823.03;4972370;28;20035;-67
2022/11/27 03:17:05;;;;;;;50.45;5.68;;;;;;;-3.31;100.00;94812.78;4978687;28;20765;-67
2022/11/27 03:20:06;;;;;;;52.85;5.72;;;;;;;-3.34;100.00;94811.50;4971741;28;20050;-65
2022/11/27 03:22:33;;;;;;;19.15;5.57;;;;;;;-3.30;100.00;94804.44;4952416;28;20282;-68
2022/11/27 03:25:00;;;;;;;40.65;6.05;;;;;;;-3.41;100.00;94813.81;4961788;28;20043;-67
2022/11/27 03:27:37;;;;;;;41.45;5.20;;;;;;;-3.52;100.00;94801.72;4968172;28;20042;-66
2022/11/27 03:30:07;;;;;;;78.00;6.70;;;;;;;-3.59;100.00;94806.72;4987242;28;20335;-66
2022/11/27 03:32:34;;;;;;;35.92;6.38;;;;;;;-3.61;100.00;94807.03;4990716;28;20042;-68
2022/11/27 03:35:02;;;;;;;52.05;7.03;;;;;;;-3.58;100.00;94817.16;4991189;28;20042;-67
2022/11/27 03:37:29;;;;;;;30.17;5.75;;;;;;;-3.45;100.00;94813.63;4975712;28;20039;-67
2022/11/27 03:39:55;;;;;;;42.25;5.75;;;;;;;-3.46;100.00;94811.25;4970036;28;20069;-67
2022/11/27 03:42:33;;;;;;;45.42;5.95;;;;;;;-3.45;100.00;94810.16;4971922;28;20058;-67
2022/11/27 03:45:22;;;;;;;25.08;6.20;;;;;;;-3.38;100.00;94818.59;4978300;28;20047;-67
2022/11/27 03:48:21;;;;;;;79.70;6.28;;;;;;;-3.36;100.00;94807.53;4976359;28;20048;-66
2022/11/27 03:51:12;;;;;;;74.30;6.68;;;;;;;-3.31;100.00;94805.50;4970861;28;20051;-71
2022/11/27 03:53:42;;;;;;;43.67;6.03;;;;;;;-3.42;100.00;94804.97;4971242;28;20432;-67
2022/11/27 03:56:36;;;;;;;55.03;6.05;;;;;;;-3.48;100.00;94800.84;4969943;28;20069;-67
2022/11/27 03:59:05;;;;;;;33.05;5.85;;;;;;;-3.51;100.00;94801.44;4977463;28;20626;-67
2022/11/27 04:01:33;;;;;;;35.47;5.72;;;;;;;-3.39;100.00;94802.78;4986801;28;20054;-67
2022/11/27 04:03:59;;;;;;;39.95;5.53;;;;;;;-3.50;100.00;94805.72;4971082;28;20539;-67
2022/11/27 04:06:26;;;;;;;56.50;5.68;;;;;;;-3.57;100.00;94805.31;4978707;28;20077;-69
2022/11/27 04:08:54;;;;;;;32.80;5.43;;;;;;;-3.65;100.00;94798.78;4967198;28;20046;-67
2022/11/27 04:11:20;;;;;;;57.72;5.95;;;;;;;-3.83;100.00;94792.50;4971215;28;20042;-66
2022/11/27 04:13:47;;;;;;;22.52;5.78;;;;;;;-3.76;100.00;94796.63;4970881;28;20066;-67
2022/11/27 04:16:14;;;;;;;20.52;5.70;;;;;;;-3.68;100.00;94783.31;4971079;28;20097;-69
2022/11/27 04:18:41;;;;;;;30.50;6.03;;;;;;;-3.67;100.00;94790.25;4970747;28;20104;-67
2022/11/27 04:21:07;;;;;;;31.08;5.78;;;;;;;-3.56;100.00;94784.66;4970957;28;20046;-66
2022/11/27 04:23:36;;;;;;;23.17;6.00;;;;;;;-3.62;100.00;94779.41;4970665;28;20038;-66
2022/11/27 04:26:04;;;;;;;20.15;5.13;;;;;;;-3.55;100.00;94778.97;4966904;28;20042;-66
2022/11/27 04:28:31;;;;;;;32.40;5.45;;;;;;;-3.69;100.00;94771.00;4975085;28;20050;-68
2022/11/27 04:30:57;;;;;;;45.42;6.00;;;;;;;-3.65;100.00;94776.53;4989180;28;21651;-67
2022/11/27 04:33:24;;;;;;;56.65;6.30;;;;;;;-3.70;100.00;94773.97;4990434;28;20050;-68
2022/11/27 04:35:52;;;;;;;52.40;6.70;;;;;;;-3.72;100.00;94765.44;4987010;28;20054;-68
2022/11/27 04:38:19;;;;;;;49.05;5.85;;;;;;;-3.66;100.00;94759.66;4970924;28;20117;-67
2022/11/27 04:40:46;;;;;;;54.40;6.32;;;;;;;-3.57;100.00;94758.94;4970353;28;20055;-67
2022/11/27 04:43:12;;;;;;;36.30;6.10;;;;;;;-3.56;100.00;94763.19;4976308;28;20042;-67
2022/11/27 04:45:40;;;;;;;22.33;5.60;;;;;;;-3.52;100.00;94761.47;4980593;28;20047;-67
2022/11/27 04:48:06;;;;;;;65.28;6.80;;;;;;;-3.51;100.00;94757.72;4970608;28;20092;-67
2022/11/27 04:50:33;;;;;;;65.88;5.85;;;;;;;-3.65;100.00;94755.88;4969134;28;20046;-69
2022/11/27 04:53:00;;;;;;;49.65;6.32;;;;;;;-3.76;100.00;94759.91;4970508;28;20042;-68
2022/11/27 04:55:27;;;;;;;30.40;5.85;;;;;;;-3.65;100.00;94753.19;4970805;28;20034;-67
2022/11/27 04:57:53;;;;;;;126.57;7.30;;;;;;;-3.76;100.00;94753.72;4988963;28;20046;-67
2022/11/27 05:00:20;;;;;;;30.55;5.72;;;;;;;-3.79;100.00;94760.50;4981824;28;20485;-67
2022/11/27 05:02:47;;;;;;;13.40;5.28;;;;;;;-3.85;100.00;94762.50;4989782;28;20054;-68
2022/11/27 05:05:16;;;;;;;15.38;5.03;;;;;;;-3.82;100.00;94771.84;4984363;28;20042;-67
2022/11/27 05:07:42;;;;;;;13.27;4.82;;;;;;;-3.81;100.00;94770.75;4970146;28;20053;-67
2022/11/27 05:10:09;;;;;;;13.90;5.63;;;;;;;-3.85;100.00;94773.22;4970378;28;20046;-67
2022/11/27 05:12:36;;;;;;;18.58;6.00;;;;;;;-3.84;100.00;94774.81;4970270;28;20101;-67
2022/11/27 05:15:03;;;;;;;14.20;5.78;;;;;;;-3.86;100.00;94777.03;4970026;28;20450;-67
2022/11/27 05:17:30;;;;;;;29.38;6.20;;;;;;;-3.86;100.00;94773.56;4970427;28;20081;-67
2022/11/27 05:19:57;;;;;;;13.45;5.55;;;;;;;-3.81;100.00;94776.88;4969284;28;21829;-67
2022/11/27 05:22:24;;;;;;;32.10;6.40;;;;;;;-3.80;100.00;94780.38;4985173;28;20407;-69
2022/11/27 05:24:50;;;;;;;16.52;5.35;;;;;;;-3.72;100.00;94770.78;4965557;28;20044;-68
2022/11/27 05:27:17;;;;;;;31.05;5.90;;;;;;;-3.75;100.00;94774.88;4971207;28;20053;-67
2022/11/27 05:29:43;;;;;;;26.58;6.57;;;;;;;-3.68;100.00;94774.47;4984208;28;20046;-67
2022/11/27 05:32:10;;;;;;;31.73;6.47;;;;;;;-3.62;100.00;94771.38;4989480;28;20525;-68
2022/11/27 05:34:37;;;;;;;23.67;4.85;;;;;;;-3.59;100.00;94772.66;4981228;28;20054;-70
2022/11/27 05:37:04;;;;;;;15.45;5.13;;;;;;;-3.61;100.00;94769.47;4976065;28;20043;-67
2022/11/27 05:39:31;;;;;;;100.72;6.70;;;;;;;-3.71;100.00;94762.44;4970449;28;20049;-67
2022/11/27 05:41:57;;;;;;;14.75;4.85;;;;;;;-3.82;100.00;94761.91;4988631;28;20050;-67
2022/11/27 05:44:25;;;;;;;19.48;5.10;;;;;;;-3.70;100.00;94763.25;4990004;28;20122;-68
2022/11/27 05:46:52;;;;;;;14.02;5.43;;;;;;;-3.71;100.00;94753.63;4970387;28;20054;-69
2022/11/27 05:49:19;;;;;;;16.08;6.50;;;;;;;-3.63;100.00;94752.88;4970313;28;20451;-68
2022/11/27 05:51:46;;;;;;;12.23;5.22;;;;;;;-3.64;100.00;94749.41;4973195;28;20062;-68
2022/11/27 05:54:18;;;;;;;13.30;5.50;;;;;;;-3.53;100.00;94749.97;4978479;28;20182;-68
2022/11/27 05:56:44;;;;;;;13.52;5.47;;;;;;;-3.55;100.00;94749.47;4985473;28;20047;-68
2022/11/27 05:59:11;;;;;;;11.70;5.18;;;;;;;-3.57;100.00;94748.97;4978628;28;20054;-68
2022/11/27 06:01:38;;;;;;;74.82;5.35;;;;;;;-3.72;100.00;94742.09;4983198;28;20081;-68
2022/11/27 06:04:05;;;;;;;50.80;4.82;;;;;;;-3.81;100.00;94744.69;4985734;28;20054;-68
2022/11/27 06:06:31;;;;;;;54.58;5.07;;;;;;;-3.83;100.00;94752.25;4976630;28;20047;-64
2022/11/27 06:08:59;;;;;;;15.32;4.82;;;;;;;-3.78;100.00;94753.25;4972877;28;20039;-69
2022/11/27 06:11:26;;;;;;;13.95;4.55;;;;;;;-3.71;100.00;94759.78;4973082;28;20054;-69
2022/11/27 06:13:53;;;;;;;38.40;5.60;;;;;;;-3.80;100.00;94764.28;4973004;28;20042;-68
2022/11/27 06:16:22;;;;;;;35.90;5.47;;;;;;;-3.87;100.00;94761.22;4972813;28;20043;-68
2022/11/27 06:18:51;;;;;;;46.47;6.10;;;;;;;-3.91;100.00;94758.34;4973104;28;20054;-69
2022/11/27 06:21:19;;;;;;;44.38;6.38;;;;;;;-3.83;100.00;94763.00;4973036;28;20051;-69
2022/11/27 06:23:45;;;;;;;41.35;6.25;;;;;;;-3.83;100.00;94767.56;4972520;28;20113;-69
2022/11/27 06:26:15;;;;;;;19.95;6.03;;;;;;;-3.73;100.00;94769.22;4986227;28;20062;-68
2022/11/27 06:28:42;;;;;;;15.13;6.45;;;;;;;-3.76;100.00;94776.00;4982640;28;20410;-69
2022/11/27 06:31:11;;;;;;;16.50;5.60;;;;;;;-3.79;100.00;94771.22;4987318;28;20049;-69
2022/11/27 06:33:44;;;;;;;23.35;5.90;;;;;;;-3.81;100.00;94776.09;4981807;28;20050;-70
2022/11/27 06:36:11;;;;;;;34.40;6.40;;;;;;;-3.90;100.00;94776.03;4991396;28;20042;-69
2022/11/27 06:38:38;;;;;;;14.80;5.97;;;;;;;-3.84;100.00;94774.81;4990803;28;20046;-69
2022/11/27 06:41:06;;;;;;;24.75;5.60;;;;;;;-3.88;100.00;94765.03;4972803;28;20054;-70
2022/11/27 06:43:33;;;;;;;17.88;6.35;;;;;;;-3.91;100.00;94770.97;4972298;28;20047;-68
2022/11/27 06:46:01;;;;;;;27.40;6.28;;;;;;;-3.89;100.00;94774.16;4980304;28;20085;-69
2022/11/27 06:48:29;;;;;;;19.65;6.78;;;;;;;-3.85;100.00;94772.44;4980047;28;20034;-69
2022/11/27 06:51:04;;;;;;;27.45;6.80;;;;;;;-3.81;100.00;94760.00;4991600;28;20049;-70
2022/11/27 06:53:33;;;;;;;24.17;7.57;;;;;;;-3.71;100.00;94746.34;4976317;28;20046;-70
2022/11/27 06:56:02;;;;;;;25.52;8.30;;;;;;;-3.57;100.00;94746.31;4975400;28;20809;-70
2022/11/27 06:58:29;;;;;;;15.30;6.32;;;;;;;-3.49;100.00;94734.84;4984605;28;20607;-70
2022/11/27 07:01:02;;;;;;;17.20;7.38;;;;;;;-3.47;100.00;94721.13;4979189;28;20507;-70
2022/11/27 07:03:29;;;;;;;20.67;8.90;;;;;;;-3.31;100.00;94722.31;4972371;28;20043;-70
2022/11/27 07:05:59;;;;;;;23.67;9.90;;;;;;;-3.23;100.00;94726.94;4972218;28;20050;-69
2022/11/27 07:08:25;;;;;;;23.10;10.30;;;;;;;-3.05;100.00;94725.13;4972752;28;20042;-70
2022/11/27 07:10:52;;;;;;;19.85;8.50;;;;;;;-2.95;100.00;94728.66;4972161;28;20431;-70
2022/11/27 07:13:19;;;;;;;22.15;8.88;;;;;;;-2.99;100.00;94727.69;4972120;28;20057;-69
2022/11/27 07:15:45;;;;;;;24.98;8.13;;;;;;;-3.01;100.00;94725.31;4972095;28;20054;-70
2022/11/27 07:18:12;;;;;;;20.95;7.25;;;;;;;-3.00;100.00;94721.50;4972340;28;20066;-70
2022/11/27 07:20:39;;;;;;;22.75;9.40;;;;;;;-2.96;100.00;94719.78;4971512;28;20050;-70
2022/11/27 07:23:06;;;;;;;23.38;9.70;;;;;;;-2.86;100.00;94724.91;4972188;28;20393;-70
2022/11/27 07:25:32;;;;;;;23.05;9.60;;;;;;;-2.76;100.00;94718.44;4979983;28;20064;-68
2022/11/27 07:28:00;;;;;;;17.95;8.50;;;;;;;-2.61;100.00;94714.53;4991910;28;20076;-70
2022/11/27 07:30:27;;;;;;;20.40;8.40;;;;;;;-2.41;100.00;94718.56;4991687;28;20050;-70
2022/11/27 07:32:54;;;;;;;18.88;8.32;;;;;;;-2.30;100.00;94714.44;4991302;28;20399;-70
2022/11/27 07:35:20;;;;;;;18.80;7.82;;;;;;;-2.32;100.00;94719.34;4991435;28;20042;-70
2022/11/27 07:37:47;;;;;;;18.45;8.43;;;;;;;-2.35;100.00;94725.34;4991139;28;20189;-70
2022/11/27 07:40:14;;;;;;;17.75;8.35;;;;;;;-2.24;100.00;94707.03;4991362;28;20054;-70
2022/11/27 07:42:40;;;;;;;19.83;7.90;;;;;;;-2.28;100.00;94709.53;4991189;28;20038;-70
2022/11/27 07:45:07;;;;;;;17.05;7.90;;;;;;;-2.17;100.00;94693.91;4991339;28;20377;-69
2022/11/27 07:47:34;;;;;;;21.00;8.20;;;;;;;-1.98;100.00;94687.44;4991080;28;20073;-66
2022/11/27 07:50:01;;;;;;;16.55;7.63;;;;;;;-1.91;100.00;94683.16;4991336;28;20042;-69
2022/11/27 07:52:28;;;;;;;16.70;6.80;;;;;;;-1.84;100.00;94691.53;4991528;28;20072;-69
2022/11/27 07:54:55;;;;;;;16.50;7.00;;;;;;;-1.63;100.00;94702.44;4973809;28;20111;-68
2022/11/27 07:57:21;;;;;;;17.42;7.88;;;;;;;-1.50;100.00;94707.97;4991100;28;20064;-68
2022/11/27 07:59:48;;;;;;;27.17;10.83;;;;;;;-1.45;100.00;94700.53;4990795;28;20076;-68
2022/11/27 08:02:15;;;;;;;19.40;8.75;;;;;;;-1.40;100.00;94694.16;4990913;28;20385;-68
2022/11/27 08:04:42;;;;;;;16.40;7.85;;;;;;;-0.71;100.00;94685.03;4990213;28;20043;-69
2022/11/27 08:07:09;;;;;;;15.07;7.03;;;;;;;-1.11;100.00;94676.50;4973920;28;20112;-68
2022/11/27 08:09:36;;;;;;;16.85;7.45;;;;;;;-0.85;100.00;94674.47;4990766;28;20479;-68
2022/11/27 08:12:03;;;;;;;14.10;6.37;;;;;;;-0.72;100.00;94674.59;4991079;28;20049;-69
2022/11/27 08:14:30;;;;;;;14.55;6.97;;;;;;;-0.60;100.00;94685.47;4990674;28;20491;-68
2022/11/27 08:16:57;;;;;;;16.05;7.30;;;;;;;-0.12;100.00;94681.53;4978663;28;21702;-68
2022/11/27 08:19:24;;;;;;;15.75;7.45;;;;;;;-0.44;99.86;94683.00;4986271;28;20053;-68
2022/11/27 08:21:50;;;;;;;18.02;7.22;;;;;;;-0.82;100.00;94684.63;4990428;28;20112;-68
2022/11/27 08:24:17;;;;;;;13.57;6.50;;;;;;;-0.91;100.00;94691.94;4983328;28;20054;-69
2022/11/27 08:26:44;;;;;;;14.13;7.18;;;;;;;-0.75;100.00;94694.88;4971480;28;20054;-68
2022/11/27 08:29:11;;;;;;;14.45;6.80;;;;;;;-0.59;100.00;94700.53;4990587;28;20050;-68
2022/11/27 08:31:38;;;;;;;13.98;7.10;;;;;;;-0.53;100.00;94710.00;4990238;28;20506;-68
2022/11/27 08:34:04;;;;;;;12.93;6.40;;;;;;;-0.21;100.00;94702.38;4990467;28;20050;-69
2022/11/27 08:36:31;;;;;;;14.60;6.27;;;;;;;-0.12;100.00;94699.59;4990785;28;20108;-68
2022/11/27 08:38:58;;;;;;;12.93;6.57;;;;;;;0.28;98.95;94693.75;4990180;28;20884;-68
2022/11/27 08:41:25;;;;;;;15.35;6.97;;;;;;;0.19;98.70;94693.84;4990236;28;20042;-68
2022/11/27 08:43:51;;;;;;;12.52;6.55;;;;;;;0.63;97.72;94683.44;4989083;28;20046;-68
2022/11/27 08:46:18;;;;;;;14.85;6.60;;;;;;;0.81;96.64;94685.97;4990441;28;20178;-68
2022/11/27 08:48:45;;;;;;;13.33;6.40;;;;;;;1.14;96.33;94697.47;4990143;28;20044;-68
2022/11/27 08:51:14;;;;;;;14.93;6.78;;;;;;;1.69;94.25;94697.28;4990083;28;20410;-68
2022/11/27 08:53:43;;;;;;;11.93;6.15;;;;;;;2.15;91.27;94684.34;4990277;28;20042;-68
2022/11/27 08:56:15;;;;;;;15.23;7.40;;;;;;;1.92;91.61;94689.47;4990255;28;20050;-68
2022/11/27 08:58:43;;;;;;;14.70;6.72;;;;;;;1.44;92.18;94693.81;4990062;28;20091;-68
2022/11/27 09:01:21;;;;;;;18.83;8.47;;;;;;;0.97;95.09;94676.88;4990010;28;20403;-69
2022/11/27 09:03:48;;;;;;;31.48;10.90;;;;;;;1.03;95.09;94676.63;4989905;28;20051;-69
2022/11/27 09:06:24;;;;;;;15.75;7.35;;;;;;;1.05;95.34;94672.50;4990233;28;20120;-68
2022/11/27 09:08:50;;;;;;;16.02;7.32;;;;;;;1.24;95.89;94668.44;4990028;28;20128;-69
2022/11/27 09:11:18;;;;;;;16.77;7.85;;;;;;;1.19;95.39;94664.84;4990190;28;20050;-69
2022/11/27 09:13:46;;;;;;;16.67;7.97;;;;;;;1.64;94.82;94662.34;4990105;28;20050;-69
2022/11/27 09:16:15;;;;;;;18.33;9.30;;;;;;;1.94;94.31;94666.34;4990126;28;20053;-70
2022/11/27 09:18:44;;;;;;;15.80;7.85;;;;;;;2.20;92.90;94659.75;4997034;28;20408;-69
2022/11/27 09:21:13;;;;;;;15.73;7.88;;;;;;;2.50;91.34;94664.81;4989920;28;20403;-70
2022/11/27 09:23:40;;;;;;;20.02;9.07;;;;;;;2.32;91.45;94667.81;4989868;28;20054;-69
2022/11/27 09:26:09;;;;;;;28.50;13.43;;;;;;;3.27;90.18;94664.47;4992795;28;20050;-70
2022/11/27 09:28:38;;;;;;;19.60;10.00;;;;;;;3.58;85.45;94669.13;4993543;28;20135;-69
2022/11/27 09:31:06;;;;;;;18.85;10.23;;;;;;;4.80;80.71;94666.22;4994084;28;20108;-69
2022/11/27 09:33:36;;;;;;;15.45;8.32;;;;;;;4.92;77.92;94665.25;4993480;28;20038;-69
2022/11/27 09:36:15;;;;;;;15.60;7.45;;;;;;;4.59;78.32;94658.44;4993983;28;20042;-69
2022/11/27 09:38:42;;;;;;;14.20;7.13;;;;;;;4.65;80.15;94645.34;4993634;28;20072;-69
2022/11/27 09:41:09;;;;;;;20.17;8.50;;;;;;;4.73;78.25;94638.91;4993840;28;20488;-70
2022/11/27 09:43:44;;;;;;;11.25;6.75;;;;;;;5.39;76.67;94634.22;4993420;28;20042;-69
2022/11/27 09:46:25;;;;;;;11.88;6.50;;;;;;;4.83;78.42;94651.13;4993498;28;20531;-69
2022/11/27 09:48:53;;;;;;;11.43;6.40;;;;;;;4.69;78.47;94648.94;4993244;28;20050;-69
2022/11/27 09:51:30;;;;;;;13.13;7.30;;;;;;;4.79;79.11;94640.19;4976301;28;20050;-70
2022/11/27 09:54:23;;;;;;;13.00;7.28;;;;;;;4.15;80.52;94636.22;4992897;28;21338;-69
2022/11/27 09:56:52;;;;;;;12.25;6.55;;;;;;;4.36;81.20;94627.69;4992949;28;20042;-69
2022/11/27 09:59:24;;;;;;;11.60;6.28;;;;;;;3.95;81.85;94625.31;4993059;28;20127;-70
2022/11/27 10:01:50;;;;;;;12.27;6.88;;;;;;;4.10;82.98;94615.53;4992448;28;20073;-71
2022/11/27 10:04:19;;;;;;;11.27;6.47;;;;;;;3.75;84.27;94610.94;4993097;28;20104;-70
2022/11/27 10:07:19;;;;;;;13.43;7.43;;;;;;;3.91;82.24;94602.72;4992942;28;20499;-70
2022/11/27 10:10:04;;;;;;;11.93;6.57;;;;;;;4.10;82.50;94601.16;4993039;28;20058;-70
2022/11/27 10:12:54;;;;;;;12.35;6.30;;;;;;;4.98;81.17;94592.31;4993249;28;20054;-70
2022/11/27 10:15:39;;;;;;;12.02;6.13;;;;;;;4.64;78.88;94594.06;4992277;28;20733;-70
2022/11/27 10:18:28;;;;;;;12.97;6.30;;;;;;;4.60;80.83;94599.41;4992331;28;21336;-70
2022/11/27 10:21:06;;;;;;;14.60;7.10;;;;;;;5.25;76.74;94582.28;4992635;28;20050;-70
2022/11/27 10:23:51;;;;;;;12.48;6.88;;;;;;;5.20;77.94;94583.34;4992291;28;20099;-68
2022/11/27 10:26:30;;;;;;;12.13;6.90;;;;;;;5.53;76.13;94579.19;4992778;28;20050;-70
2022/11/27 10:29:33;;;;;;;13.75;7.53;;;;;;;6.16;74.22;94583.16;4984397;28;20641;-70
2022/11/27 10:32:30;;;;;;;12.67;6.90;;;;;;;5.52;76.34;94585.00;4992287;28;21612;-70
2022/11/27 10:35:20;;;;;;;13.18;7.78;;;;;;;5.99;73.39;94589.16;4991966;28;20074;-70
2022/11/27 10:37:59;;;;;;;13.50;7.90;;;;;;;6.09;73.25;94582.28;4992293;28;20046;-69
2022/11/27 10:40:59;;;;;;;14.05;7.45;;;;;;;5.47;75.53;94574.41;4991893;28;20415;-67
2022/11/27 10:43:26;;;;;;;13.27;7.07;;;;;;;5.30;76.14;94575.72;4992477;28;20035;-70
2022/11/27 10:45:53;;;;;;;12.70;7.00;;;;;;;4.93;77.85;94568.94;4983139;28;20050;-70
2022/11/27 10:48:20;;;;;;;11.90;6.72;;;;;;;4.52;78.28;94584.13;4992248;28;20050;-70
2022/11/27 10:50:48;;;;;;;11.77;6.68;;;;;;;3.73;81.12;94577.91;4991947;28;20057;-69
2022/11/27 10:53:31;;;;;;;15.80;7.53;;;;;;;3.69;82.88;94571.63;4992351;28;20050;-70
2022/11/27 10:56:03;;;;;;;19.13;9.98;;;;;;;3.37;84.82;94568.22;4991433;28;20626;-69
2022/11/27 10:58:40;;;;;;;33.03;16.60;;;;;;;3.19;86.74;94581.38;4992125;28;20038;-69
2022/11/27 11:01:13;;;;;;;12.95;6.60;;;;;;;2.83;86.80;94564.25;4991239;28;20821;-68
2022/11/27 11:03:40;;;;;;;18.67;9.50;;;;;;;2.72;88.94;94561.28;4991537;28;20476;-69
2022/11/27 11:06:28;;;;;;;18.23;8.73;;;;;;;2.38;91.44;94549.97;4992220;28;20072;-69
2022/11/27 11:09:05;;;;;;;18.23;8.93;;;;;;;2.62;91.05;94545.53;4991900;28;20390;-69
2022/11/27 11:11:32;;;;;;;16.57;8.33;;;;;;;2.92;90.60;94545.88;4991975;28;20125;-70
2022/11/27 11:13:58;;;;;;;18.25;7.80;;;;;;;2.71;90.32;94542.66;4991270;28;21524;-70
2022/11/27 11:16:29;;;;;;;20.42;10.00;;;;;;;2.64;91.41;94537.84;4991733;28;20050;-70
2022/11/27 11:19:01;;;;;;;16.70;7.68;;;;;;;2.52;91.04;94546.84;4991440;28;20446;-70
2022/11/27 11:21:31;;;;;;;14.50;7.45;;;;;;;2.71;91.38;94548.84;4991785;28;20114;-69
2022/11/27 11:23:59;;;;;;;14.07;6.80;;;;;;;2.48;91.31;94543.25;4991258;28;20684;-69
2022/11/27 11:26:35;;;;;;;16.98;8.48;;;;;;;2.72;92.10;94546.94;4974623;28;20046;-69
2022/11/27 11:29:16;;;;;;;17.90;8.52;;;;;;;2.63;91.81;94538.19;4990864;28;20845;-70
2022/11/27 11:31:43;;;;;;;15.82;8.38;;;;;;;2.62;92.23;94534.69;4990849;28;20045;-70
2022/11/27 11:34:26;;;;;;;18.58;8.70;;;;;;;2.13;94.53;94521.44;4991893;28;20042;-70
2022/11/27 11:37:04;;;;;;;16.77;8.07;;;;;;;2.27;95.09;94513.69;4991277;28;20050;-68